Terminal Aerodrome Forecast
Issued by NWS Pueblo, CO

Home | Current Version | Previous Version | Text Only | Print | Product List | Glossary On
Versions: 1 2 3 4 5 6 7 8 9 10 11 12 13 14 15 16 17 18 19 20 21 22 23 24 25 26 27 28 29 30 31 32 33 34 35 36 37 38 39 40 41 42 43 44 45 46 47
000
FTUS45 KPUB 272324
TAFALS
TAF
KALS 272324Z 2800/2824 21012KT P6SM BKN070
     FM280200 17008KT P6SM VCSH SCT020 OVC040
     FM280600 18006KT 3SM -SN BR SCT010 OVC025
     FM281500 18007KT 6SM BR VCSH SCT020 BKN030
     FM282100 20016KT 1SM -SN BR BKN010 OVC020=

USA.gov is the U.S. government's official web portal to all federal, state and local government web resources and services.